Time;durP1;ratioP1;P1;durP2;ratioP2;P2;SDS_P1;SDS_P2;PMS_P1;PMS_P2;Temp;Humidity;BMP_temperature;BMP_pressure;BME280_temperature;BME280_humidity;BME280_pressure;Samples;Min_cycle;Max_cycle;Signal;HPM_P1;HPM_P2
2021/12/16 00:02:14;;;;;;;8.10;3.27;;;;;;;5.63;71.98;99922.25;4936272;29;20645;-90
2021/12/16 00:07:33;;;;;;;11.60;4.73;;;;;;;5.81;71.52;99919.28;4954868;28;20331;-90
2021/12/16 00:10:15;;;;;;;7.70;3.33;;;;;;;5.82;71.16;99912.28;4955296;29;20164;-90
2021/12/16 00:31:54;;;;;;;8.10;4.23;;;;;;;5.97;70.33;99927.63;4919689;29;20249;-90
2021/12/16 00:34:23;;;;;;;13.27;3.93;;;;;;;5.90;70.33;99924.28;4956144;29;20271;-91
2021/12/16 00:36:50;;;;;;;8.53;4.00;;;;;;;5.94;70.31;99927.69;4933947;29;20205;-90
2021/12/16 00:39:29;;;;;;;5.50;3.17;;;;;;;6.00;70.23;99924.97;4929722;29;20579;-90
2021/12/16 00:42:01;;;;;;;9.27;4.47;;;;;;;6.08;69.95;99928.25;4932963;29;20284;-91
2021/12/16 00:47:13;;;;;;;13.93;6.07;;;;;;;6.16;69.44;99928.94;4952459;29;20257;-91
2021/12/16 00:49:48;;;;;;;12.03;4.60;;;;;;;6.13;69.59;99918.63;4946198;29;20180;-91
2021/12/16 00:55:16;;;;;;;8.83;3.57;;;;;;;6.23;69.07;99927.94;4948480;29;20199;-90
2021/12/16 00:57:44;;;;;;;9.63;4.10;;;;;;;6.25;69.00;99920.94;4944582;29;20195;-90
2021/12/16 01:00:14;;;;;;;7.10;2.90;;;;;;;6.20;68.44;99917.56;4958098;28;20554;-90
2021/12/16 01:51:34;;;;;;;10.23;4.47;;;;;;;5.92;68.90;99898.25;4976426;28;20595;-91
2021/12/16 01:55:15;;;;;;;10.43;4.53;;;;;;;5.94;68.35;99899.94;4976419;28;20228;-90
2021/12/16 01:57:29;;;;;;;8.00;3.50;;;;;;;6.21;67.87;99898.44;4936856;29;20328;-90
2021/12/16 02:00:04;;;;;;;7.10;3.87;;;;;;;6.11;67.51;99890.00;4957078;29;20175;-89
2021/12/16 02:05:24;;;;;;;6.23;3.90;;;;;;;5.93;67.78;99890.41;4957503;29;20236;-89
2021/12/16 02:10:22;;;;;;;11.57;4.23;;;;;;;6.02;68.39;99887.63;4956825;28;20212;-90
2021/12/16 02:13:10;;;;;;;8.43;3.00;;;;;;;6.11;67.69;99894.34;4946229;29;20674;-91
2021/12/16 02:29:45;;;;;;;7.27;4.43;;;;;;;5.97;68.10;99897.28;4956750;29;20243;-89
2021/12/16 02:32:13;;;;;;;5.33;3.30;;;;;;;5.99;67.84;99905.03;4956025;28;20655;-90
2021/12/16 02:35:12;;;;;;;17.60;5.20;;;;;;;5.92;67.79;99893.06;4940014;29;20190;-89
2021/12/16 02:37:45;;;;;;;10.10;4.17;;;;;;;5.82;68.94;99886.28;4955802;29;20198;-91
2021/12/16 02:40:12;;;;;;;9.93;4.43;;;;;;;5.77;68.66;99888.13;4940485;29;20588;-89
2021/12/16 02:42:51;;;;;;;11.87;4.57;;;;;;;5.84;68.42;99884.53;4956245;28;20188;-90
2021/12/16 02:50:44;;;;;;;8.30;3.17;;;;;;;5.49;68.86;99883.50;4956936;29;20188;-90
2021/12/16 02:53:10;;;;;;;17.93;5.93;;;;;;;5.32;69.73;99880.38;4956556;28;20182;-90
2021/12/16 02:55:35;;;;;;;7.40;3.93;;;;;;;5.57;69.37;99878.16;4939462;29;20201;-89
2021/12/16 02:58:01;;;;;;;9.30;4.07;;;;;;;5.38;69.22;99880.25;4948547;28;20248;-89
2021/12/16 03:00:29;;;;;;;9.23;4.60;;;;;;;5.29;69.65;99877.84;4921449;29;20182;-92
2021/12/16 03:02:54;;;;;;;7.00;3.53;;;;;;;5.36;69.11;99879.44;4939049;29;20189;-90
2021/12/16 03:05:21;;;;;;;9.77;4.63;;;;;;;5.47;68.96;99884.44;4955767;28;20533;-90
2021/12/16 03:07:50;;;;;;;8.30;3.37;;;;;;;5.28;69.34;99891.75;4955744;28;20214;-88
2021/12/16 03:18:00;;;;;;;4.47;2.73;;;;;;;5.41;68.46;99885.41;4956233;29;20172;-90
2021/12/16 03:20:50;;;;;;;10.53;4.83;;;;;;;5.29;68.80;99880.44;4938722;29;20187;-90
2021/12/16 03:23:35;;;;;;;11.77;4.43;;;;;;;5.55;67.83;99879.94;4953514;28;20192;-90
2021/12/16 03:31:38;;;;;;;8.73;2.93;;;;;;;5.61;66.75;99885.00;4955208;29;20177;-90
2021/12/16 03:36:50;;;;;;;10.87;3.47;;;;;;;5.69;66.84;99887.44;4936782;29;20190;-89
2021/12/16 03:39:16;;;;;;;7.93;4.03;;;;;;;5.64;67.17;99882.34;4920250;29;20184;-90
2021/12/16 03:41:43;;;;;;;8.67;4.17;;;;;;;5.53;66.39;99885.16;4919304;29;20180;-90
2021/12/16 03:44:13;;;;;;;7.83;3.50;;;;;;;5.51;66.74;99891.28;4950246;29;20271;-90
2021/12/16 03:46:46;;;;;;;8.20;3.40;;;;;;;5.34;66.98;99889.03;4955836;29;20164;-89
2021/12/16 03:49:17;;;;;;;9.17;3.53;;;;;;;5.18;67.35;99882.41;4955776;29;20226;-89
2021/12/16 03:51:52;;;;;;;11.93;3.33;;;;;;;5.35;67.16;99889.84;4955661;29;20249;-89
2021/12/16 03:54:32;;;;;;;8.03;2.73;;;;;;;5.47;66.44;99881.84;4957146;28;20310;-90
2021/12/16 03:57:00;;;;;;;7.30;2.60;;;;;;;5.42;66.66;99879.31;4962111;28;20199;-90
2021/12/16 03:59:30;;;;;;;7.10;2.77;;;;;;;5.39;66.56;99873.34;4942984;28;20187;-90
2021/12/16 04:01:59;;;;;;;7.70;4.30;;;;;;;5.48;66.71;99873.13;4942778;29;20186;-90
2021/12/16 04:04:25;;;;;;;11.43;4.57;;;;;;;5.51;66.54;99884.34;4950517;29;20186;-91
2021/12/16 04:06:50;;;;;;;7.93;3.00;;;;;;;5.50;66.42;99885.22;4944371;29;20564;-89
2021/12/16 04:09:17;;;;;;;6.83;3.43;;;;;;;5.45;66.69;99891.41;4945259;29;20649;-91
2021/12/16 04:11:55;;;;;;;11.10;4.47;;;;;;;5.59;65.83;99892.84;4944524;29;20189;-90
2021/12/16 04:14:20;;;;;;;7.63;2.87;;;;;;;5.50;66.18;99884.38;4944637;29;20184;-89
2021/12/16 04:16:52;;;;;;;5.20;2.47;;;;;;;5.44;66.52;99894.91;4961309;28;20565;-89
2021/12/16 04:19:25;;;;;;;5.70;3.07;;;;;;;5.41;66.53;99890.63;4960821;28;20211;-91
2021/12/16 04:21:57;;;;;;;11.47;3.20;;;;;;;5.28;66.86;99894.34;4944395;28;20183;-90
2021/12/16 04:24:23;;;;;;;8.07;3.50;;;;;;;5.46;66.75;99898.31;4943292;29;20266;-90
2021/12/16 04:26:52;;;;;;;6.27;3.23;;;;;;;5.27;67.14;99903.00;4942034;29;20264;-91
2021/12/16 04:29:18;;;;;;;13.20;3.43;;;;;;;5.50;66.43;99898.22;4942662;29;20216;-90
2021/12/16 04:31:43;;;;;;;16.57;4.27;;;;;;;5.46;65.80;99899.19;4942376;28;20221;-90
2021/12/16 04:34:09;;;;;;;4.13;1.43;;;;;;;5.31;65.81;99899.47;4942046;29;20615;-89
2021/12/16 04:36:36;;;;;;;19.90;3.77;;;;;;;5.44;66.00;99897.50;4942279;29;20225;-89
2021/12/16 04:39:05;;;;;;;10.00;2.33;;;;;;;5.33;66.11;99904.63;4938296;29;20199;-90
2021/12/16 04:41:31;;;;;;;5.43;3.07;;;;;;;5.48;65.75;99907.78;4944216;29;20199;-90
2021/12/16 04:43:56;;;;;;;6.30;3.27;;;;;;;5.39;66.00;99907.13;4944280;28;20185;-91
2021/12/16 04:46:26;;;;;;;7.43;2.67;;;;;;;5.63;65.45;99905.78;4944247;29;20251;-91
2021/12/16 04:48:54;;;;;;;9.47;3.80;;;;;;;5.53;65.49;99905.09;4942991;29;20185;-89
2021/12/16 04:51:23;;;;;;;5.63;3.03;;;;;;;5.42;66.12;99909.66;4944277;29;20184;-90
2021/12/16 04:53:49;;;;;;;4.37;2.43;;;;;;;5.51;65.42;99904.28;4944503;29;20688;-90
2021/12/16 04:56:16;;;;;;;7.33;3.23;;;;;;;5.51;65.35;99918.13;4944445;29;20209;-90
2021/12/16 04:58:45;;;;;;;9.40;4.53;;;;;;;5.32;65.73;99910.75;4927406;29;20208;-89
2021/12/16 05:01:11;;;;;;;7.70;2.63;;;;;;;5.44;65.86;99911.34;4926392;29;20279;-91
2021/12/16 05:03:36;;;;;;;6.90;2.63;;;;;;;5.31;65.64;99922.88;4925610;29;20695;-90
2021/12/16 05:06:04;;;;;;;11.30;3.33;;;;;;;5.44;65.75;99919.16;4940874;29;20267;-90
2021/12/16 05:08:29;;;;;;;3.90;2.50;;;;;;;5.34;65.71;99919.34;4944277;29;20189;-91
2021/12/16 05:10:58;;;;;;;7.80;3.03;;;;;;;5.51;65.49;99919.88;4941509;29;20245;-92
2021/12/16 05:13:26;;;;;;;7.40;2.77;;;;;;;5.43;65.08;99913.97;4947464;28;20680;-91
2021/12/16 05:15:53;;;;;;;6.60;2.60;;;;;;;5.33;66.03;99913.28;4937952;29;20654;-90
2021/12/16 05:18:24;;;;;;;13.27;3.70;;;;;;;5.45;65.91;99923.44;4938716;29;20189;-90
2021/12/16 05:20:51;;;;;;;8.30;2.93;;;;;;;5.45;65.94;99917.41;4921920;29;20635;-90
2021/12/16 05:28:38;;;;;;;4.47;2.83;;;;;;;5.24;66.12;99923.84;4942387;29;20220;-90
2021/12/16 05:31:04;;;;;;;10.63;4.57;;;;;;;5.15;66.75;99924.03;4940923;29;20183;-91
2021/12/16 05:33:30;;;;;;;7.17;3.50;;;;;;;4.82;66.82;99919.44;4939950;29;20638;-90
2021/12/16 05:35:56;;;;;;;7.17;2.93;;;;;;;5.07;66.74;99925.06;4921515;29;20229;-91
2021/12/16 05:38:24;;;;;;;5.40;2.40;;;;;;;5.14;66.55;99922.31;4938392;29;20216;-90
2021/12/16 05:40:50;;;;;;;8.17;3.57;;;;;;;5.03;66.53;99923.41;4937381;29;20217;-89
2021/12/16 05:43:18;;;;;;;5.77;2.07;;;;;;;4.92;66.82;99919.25;4946314;29;20585;-89
2021/12/16 05:45:46;;;;;;;9.50;2.80;;;;;;;4.85;67.31;99920.22;4957601;28;20188;-91
2021/12/16 05:48:15;;;;;;;8.77;3.57;;;;;;;4.95;67.11;99921.78;4943956;28;20269;-89
2021/12/16 05:50:48;;;;;;;3.80;2.83;;;;;;;5.14;66.51;99931.84;4951858;28;20208;-89
2021/12/16 05:53:14;;;;;;;7.47;3.97;;;;;;;5.20;65.70;99922.22;4940287;29;20215;-90
2021/12/16 05:55:40;;;;;;;5.80;3.60;;;;;;;5.08;66.18;99919.84;4938662;29;20208;-90
2021/12/16 05:58:07;;;;;;;7.23;3.77;;;;;;;5.10;66.78;99925.88;4938324;29;20305;-91
2021/12/16 06:00:41;;;;;;;8.20;3.43;;;;;;;5.03;66.91;99923.41;4931570;29;20195;-90
2021/12/16 06:03:08;;;;;;;10.37;3.13;;;;;;;4.98;66.23;99923.47;4955603;29;20186;-89
2021/12/16 06:05:33;;;;;;;6.67;3.03;;;;;;;5.21;66.29;99918.75;4956936;28;20246;-89
2021/12/16 06:07:59;;;;;;;10.07;3.33;;;;;;;5.04;66.73;99925.97;4956346;28;20207;-90
2021/12/16 06:13:07;;;;;;;7.07;2.77;;;;;;;5.00;66.54;99919.13;4944139;29;20179;-90
2021/12/16 06:27:01;;;;;;;5.20;3.30;;;;;;;5.09;66.16;99913.75;4947012;29;20193;-89
2021/12/16 06:29:23;;;;;;;5.93;2.57;;;;;;;5.19;66.44;99917.88;4944991;29;20187;-88
2021/12/16 06:31:49;;;;;;;3.47;2.03;;;;;;;4.96;66.57;99925.25;4937782;29;20195;-89
2021/12/16 06:34:15;;;;;;;11.17;3.17;;;;;;;5.08;66.05;99919.84;4922568;29;20216;-89
2021/12/16 06:36:40;;;;;;;2.53;1.37;;;;;;;5.08;66.01;99921.59;4936401;29;20241;-88
2021/12/16 06:39:06;;;;;;;5.00;2.73;;;;;;;4.89;67.33;99921.03;4949965;29;20636;-89
2021/12/16 06:41:37;;;;;;;7.47;3.90;;;;;;;5.05;66.49;99924.22;4937414;29;20189;-90
2021/12/16 06:44:15;;;;;;;6.90;3.13;;;;;;;5.22;66.20;99930.81;4937608;29;20202;-89
2021/12/16 06:46:43;;;;;;;7.37;3.00;;;;;;;5.23;65.72;99927.34;4931464;29;20176;-90
2021/12/16 06:49:11;;;;;;;11.60;3.20;;;;;;;5.16;65.34;99925.75;4937540;29;20201;-88
2021/12/16 06:51:45;;;;;;;6.07;3.03;;;;;;;5.29;65.33;99929.00;4920296;29;20265;-90
2021/12/16 06:54:19;;;;;;;7.87;3.23;;;;;;;5.39;64.67;99923.59;4937128;29;20690;-90
2021/12/16 06:59:28;;;;;;;9.70;2.80;;;;;;;5.31;64.84;99920.28;4938031;29;20246;-90
2021/12/16 07:04:45;;;;;;;4.73;2.17;;;;;;;5.50;64.84;99912.97;4915217;28;20198;-90
2021/12/16 07:07:14;;;;;;;8.17;3.13;;;;;;;5.55;64.28;99924.16;4943865;29;20632;-90
2021/12/16 07:09:40;;;;;;;6.67;2.40;;;;;;;5.34;64.78;99922.81;4936694;29;20180;-90
2021/12/16 07:12:08;;;;;;;6.70;2.90;;;;;;;5.51;64.29;99920.75;4938058;29;20527;-90
2021/12/16 07:14:37;;;;;;;4.50;2.90;;;;;;;5.67;64.19;99928.22;4955970;28;20192;-90
2021/12/16 07:17:10;;;;;;;5.77;2.40;;;;;;;5.70;63.53;99936.84;4955729;28;20236;-91
2021/12/16 07:19:36;;;;;;;3.43;1.53;;;;;;;5.62;63.38;99925.72;4938853;29;20177;-90
2021/12/16 07:22:03;;;;;;;4.63;2.33;;;;;;;5.59;64.24;99930.97;4955989;28;20177;-90
2021/12/16 07:24:29;;;;;;;6.93;2.60;;;;;;;5.71;63.67;99933.38;4956534;28;20188;-91
2021/12/16 07:26:54;;;;;;;6.20;2.27;;;;;;;5.63;63.79;99940.47;4938589;29;20181;-89
2021/12/16 07:29:20;;;;;;;5.70;3.33;;;;;;;5.49;64.08;99935.53;4937887;29;20187;-89
2021/12/16 07:31:46;;;;;;;6.63;3.40;;;;;;;5.52;64.09;99940.66;4938613;29;20199;-90
2021/12/16 07:34:12;;;;;;;5.77;2.73;;;;;;;5.48;64.83;99944.19;4955733;28;20180;-92
2021/12/16 07:36:40;;;;;;;6.03;2.73;;;;;;;5.34;63.92;99941.00;4937672;29;20203;-91
2021/12/16 07:39:09;;;;;;;4.67;1.90;;;;;;;5.51;64.43;99933.75;4930452;29;20181;-90
2021/12/16 07:41:35;;;;;;;5.27;2.63;;;;;;;5.74;64.04;99946.28;4936234;29;20622;-88
2021/12/16 07:44:12;;;;;;;5.27;2.60;;;;;;;5.76;63.34;99948.88;4936313;29;20188;-91
2021/12/16 07:46:50;;;;;;;6.40;2.50;;;;;;;5.68;63.96;99946.41;4920570;29;20651;-90
2021/12/16 07:49:22;;;;;;;3.23;1.73;;;;;;;5.77;63.88;99941.00;4935336;29;20173;-91
2021/12/16 07:51:49;;;;;;;9.30;2.33;;;;;;;6.04;63.15;99945.69;4936227;29;20240;-89
2021/12/16 07:54:17;;;;;;;5.90;2.87;;;;;;;5.96;62.47;99941.53;4920308;29;20185;-90
2021/12/16 07:56:44;;;;;;;2.00;1.13;;;;;;;5.85;63.20;99946.09;4919665;29;20266;-87
2021/12/16 07:59:10;;;;;;;3.47;2.03;;;;;;;5.80;63.03;99945.31;4937073;29;20185;-91
2021/12/16 08:01:38;;;;;;;19.97;2.77;;;;;;;5.84;63.30;99945.22;4936087;29;20178;-89
2021/12/16 08:04:04;;;;;;;6.00;2.83;;;;;;;5.89;62.71;99951.22;4919290;29;20186;-89
2021/12/16 08:06:30;;;;;;;5.60;3.20;;;;;;;5.98;62.93;99950.16;4936018;29;20179;-89
2021/12/16 08:09:02;;;;;;;8.50;2.73;;;;;;;6.31;61.96;99944.22;4918451;29;20197;-88
2021/12/16 08:11:30;;;;;;;5.43;2.70;;;;;;;6.19;62.02;99952.28;4937192;29;20694;-89
2021/12/16 08:13:56;;;;;;;9.27;3.00;;;;;;;6.25;62.03;99951.31;4936696;29;20235;-90
2021/12/16 08:16:22;;;;;;;5.23;3.13;;;;;;;6.17;61.66;99961.88;4937622;29;20651;-89
2021/12/16 08:18:49;;;;;;;8.00;3.23;;;;;;;6.29;62.28;99951.19;4954438;28;20556;-91
2021/12/16 08:21:15;;;;;;;5.70;3.17;;;;;;;6.41;62.42;99950.94;4954152;28;20208;-89
2021/12/16 08:23:40;;;;;;;6.67;3.13;;;;;;;6.62;62.03;99944.38;4953446;28;20631;-90
2021/12/16 08:26:06;;;;;;;6.13;2.63;;;;;;;6.56;61.81;99941.91;4954108;28;20185;-91
2021/12/16 08:28:33;;;;;;;5.83;3.20;;;;;;;6.68;61.44;99946.84;4937365;29;20177;-91
2021/12/16 08:30:58;;;;;;;8.37;2.87;;;;;;;6.33;62.06;99958.06;4937193;29;20251;-90
2021/12/16 08:33:24;;;;;;;7.20;2.87;;;;;;;6.38;62.13;99951.00;4954292;28;20189;-90
2021/12/16 08:35:52;;;;;;;5.63;3.20;;;;;;;6.51;62.51;99955.03;4945972;28;20201;-90
2021/12/16 08:38:22;;;;;;;5.33;2.17;;;;;;;6.56;61.98;99941.91;4948210;29;20192;-90
2021/12/16 08:40:52;;;;;;;7.17;2.93;;;;;;;6.42;61.69;99944.81;4938065;29;20291;-91
2021/12/16 08:43:22;;;;;;;6.67;3.03;;;;;;;6.64;62.00;99938.22;4941150;29;20191;-91
2021/12/16 08:45:48;;;;;;;6.30;3.00;;;;;;;6.77;61.61;99938.78;4940565;29;20279;-89
2021/12/16 08:48:14;;;;;;;6.73;2.40;;;;;;;6.73;62.22;99943.22;4940131;29;20272;-88
2021/12/16 08:50:44;;;;;;;7.07;3.30;;;;;;;6.88;61.55;99947.22;4957459;28;20615;-89
2021/12/16 08:53:10;;;;;;;8.90;2.90;;;;;;;6.70;61.05;99948.50;4955381;29;20185;-90
2021/12/16 08:55:37;;;;;;;10.33;3.80;;;;;;;6.59;61.62;99947.03;4924096;29;20230;-92
2021/12/16 08:58:04;;;;;;;14.03;6.27;;;;;;;6.59;61.66;99947.91;4937941;29;20550;-91
2021/12/16 09:00:35;;;;;;;6.23;3.60;;;;;;;6.74;61.70;99941.47;4938842;29;20189;-90
2021/12/16 09:03:01;;;;;;;12.70;4.67;;;;;;;7.01;61.47;99942.53;4941271;29;20209;-91
2021/12/16 09:05:28;;;;;;;5.43;3.07;;;;;;;7.11;61.15;99944.00;4944704;29;20212;-91
2021/12/16 09:07:54;;;;;;;8.13;3.23;;;;;;;7.16;60.69;99936.91;4898105;29;1176029;-90
2021/12/16 09:10:25;;;;;;;5.13;3.30;;;;;;;7.04;61.34;99939.84;4939444;29;20248;-88
2021/12/16 09:13:02;;;;;;;5.40;2.73;;;;;;;7.09;61.13;99940.59;4947427;29;20192;-90
2021/12/16 09:15:30;;;;;;;6.40;2.03;;;;;;;6.99;61.07;99941.72;4953001;29;20600;-90
2021/12/16 09:17:56;;;;;;;7.90;3.67;;;;;;;6.99;61.21;99933.91;4961731;28;20275;-90
2021/12/16 09:20:22;;;;;;;4.30;2.23;;;;;;;7.03;61.46;99935.53;4977412;28;20339;-90
2021/12/16 09:22:48;;;;;;;6.03;3.03;;;;;;;7.04;60.64;99935.50;4958814;28;20181;-89
2021/12/16 09:25:14;;;;;;;6.53;2.40;;;;;;;7.07;61.35;99932.81;4958668;28;20196;-89
2021/12/16 09:27:41;;;;;;;9.53;3.37;;;;;;;7.36;59.92;99934.66;4957633;28;20635;-90
2021/12/16 09:30:09;;;;;;;6.83;2.90;;;;;;;7.51;60.30;99923.81;4957624;28;20181;-90
2021/12/16 09:32:35;;;;;;;8.27;3.80;;;;;;;7.72;60.24;99917.13;4940826;29;20180;-89
2021/12/16 09:35:02;;;;;;;10.60;4.00;;;;;;;7.68;59.61;99916.34;4939338;28;20178;-90
2021/12/16 09:37:29;;;;;;;11.70;5.00;;;;;;;7.85;59.76;99913.25;4921646;29;20604;-91
2021/12/16 09:39:55;;;;;;;7.43;3.33;;;;;;;7.67;59.64;99909.44;4938337;29;20174;-90
2021/12/16 09:42:21;;;;;;;8.03;3.23;;;;;;;7.67;58.95;99912.06;4921500;29;20616;-90
2021/12/16 09:44:47;;;;;;;11.67;4.20;;;;;;;7.57;59.78;99902.78;4953534;28;20199;-91
2021/12/16 09:47:14;;;;;;;8.33;4.50;;;;;;;7.72;60.44;99893.66;4976437;28;20246;-90
2021/12/16 09:49:40;;;;;;;6.23;3.00;;;;;;;7.64;59.78;99900.84;4976536;28;20188;-90
2021/12/16 09:52:10;;;;;;;7.37;3.63;;;;;;;7.56;60.10;99900.19;4958689;28;20243;-89
2021/12/16 09:54:35;;;;;;;10.80;4.47;;;;;;;7.58;60.62;99898.38;4976444;28;20177;-91
2021/12/16 09:57:02;;;;;;;8.90;4.03;;;;;;;7.80;60.07;99900.34;4976359;28;20287;-89
2021/12/16 09:59:31;;;;;;;11.97;4.67;;;;;;;7.70;59.89;99890.22;4959527;28;20756;-91
2021/12/16 10:01:58;;;;;;;14.17;4.67;;;;;;;7.54;60.05;99892.44;4976456;28;20185;-89
2021/12/16 10:04:31;;;;;;;15.07;4.70;;;;;;;7.44;60.37;99890.97;4976281;28;20195;-90
2021/12/16 10:07:00;;;;;;;13.60;4.20;;;;;;;7.51;60.63;99876.00;4974798;28;20171;-89
2021/12/16 10:09:27;;;;;;;12.70;5.07;;;;;;;7.35;60.90;99870.34;4940844;29;20182;-89
2021/12/16 10:11:56;;;;;;;8.83;3.33;;;;;;;7.23;62.15;99871.53;4937249;29;20192;-90
2021/12/16 10:14:44;;;;;;;4.73;2.53;;;;;;;7.22;61.78;99858.56;4937950;29;20182;-89
2021/12/16 10:17:24;;;;;;;9.17;4.10;;;;;;;7.42;61.64;99864.91;4949946;29;20201;-90
2021/12/16 10:19:51;;;;;;;12.40;4.07;;;;;;;7.48;61.60;99855.22;4939847;29;20177;-91
2021/12/16 10:22:18;;;;;;;7.63;3.87;;;;;;;7.46;62.33;99855.25;4956591;28;20615;-91
2021/12/16 10:24:44;;;;;;;10.13;4.37;;;;;;;7.35;62.00;99858.19;4956638;28;20212;-90
2021/12/16 10:27:14;;;;;;;12.27;4.13;;;;;;;7.69;61.68;99850.22;4956871;28;20193;-91
2021/12/16 10:29:42;;;;;;;16.13;4.97;;;;;;;7.96;61.48;99843.34;4940221;29;20530;-89
2021/12/16 10:32:34;;;;;;;9.43;3.77;;;;;;;8.00;60.58;99837.97;4952855;28;20574;-90
2021/12/16 10:35:04;;;;;;;11.37;4.50;;;;;;;8.02;61.64;99840.50;4945875;29;20271;-89
2021/12/16 10:37:33;;;;;;;8.27;3.97;;;;;;;7.87;61.93;99844.47;4938807;28;20195;-90
2021/12/16 10:40:26;;;;;;;10.10;3.53;;;;;;;7.92;61.95;99832.13;4942549;29;20189;-92
2021/12/16 10:42:54;;;;;;;7.20;3.80;;;;;;;7.73;60.46;99836.19;4939443;29;20542;-90
2021/12/16 10:45:32;;;;;;;8.73;4.13;;;;;;;7.95;60.48;99829.41;4952928;28;20193;-90
2021/12/16 10:48:08;;;;;;;11.03;3.80;;;;;;;8.01;59.94;99821.41;4946452;29;20716;-90
2021/12/16 10:50:54;;;;;;;6.00;3.03;;;;;;;7.89;61.14;99827.00;4956221;28;20179;-90
2021/12/16 10:53:47;;;;;;;8.93;3.93;;;;;;;7.83;61.06;99816.75;4937246;29;20257;-90
2021/12/16 10:56:14;;;;;;;14.93;3.73;;;;;;;7.93;61.09;99822.53;4953603;29;20200;-90
2021/12/16 10:59:02;;;;;;;11.80;3.97;;;;;;;8.06;60.98;99823.88;4956531;28;20217;-89
2021/12/16 11:01:59;;;;;;;6.97;3.73;;;;;;;8.31;60.08;99824.81;4952784;29;20246;-91
2021/12/16 11:04:32;;;;;;;7.83;4.00;;;;;;;8.32;60.19;99820.44;4934136;29;20185;-90
2021/12/16 11:07:00;;;;;;;6.73;3.37;;;;;;;8.09;60.39;99823.78;4936337;29;20162;-90
2021/12/16 11:09:37;;;;;;;12.67;5.07;;;;;;;8.48;59.45;99819.03;4937396;29;20166;-91
2021/12/16 11:12:19;;;;;;;7.97;4.00;;;;;;;8.67;58.66;99819.28;4936983;29;20165;-89
2021/12/16 11:15:02;;;;;;;8.67;4.27;;;;;;;8.61;57.44;99825.56;4937262;29;20166;-91
2021/12/16 11:17:43;;;;;;;11.00;4.83;;;;;;;8.52;59.35;99818.88;4936900;29;20215;-90
2021/12/16 11:20:11;;;;;;;9.30;4.23;;;;;;;8.82;59.15;99821.38;4955676;28;20185;-91
2021/12/16 11:22:39;;;;;;;10.57;4.10;;;;;;;8.87;57.47;99820.31;4958015;28;20212;-90
2021/12/16 11:25:27;;;;;;;8.07;3.63;;;;;;;9.09;57.49;99823.84;4975022;28;20267;-91
2021/12/16 11:28:04;;;;;;;8.33;3.67;;;;;;;9.01;58.66;99831.16;4958083;28;20178;-91
2021/12/16 11:30:35;;;;;;;6.43;3.50;;;;;;;9.21;57.40;99820.81;4957907;28;20175;-91
2021/12/16 11:33:26;;;;;;;8.30;3.43;;;;;;;9.02;58.07;99817.16;4975078;28;20173;-90
2021/12/16 11:36:24;;;;;;;8.97;3.97;;;;;;;8.93;57.92;99814.00;4957235;28;20311;-90
2021/12/16 11:39:01;;;;;;;7.33;3.60;;;;;;;8.65;58.18;99811.47;4932290;28;20754;-91
2021/12/16 11:41:35;;;;;;;7.70;2.93;;;;;;;8.73;58.89;99801.63;4974896;28;20165;-90
2021/12/16 11:44:16;;;;;;;8.13;2.97;;;;;;;8.90;59.12;99808.88;4974751;28;20180;-91
2021/12/16 11:46:44;;;;;;;9.20;3.87;;;;;;;8.96;58.73;99811.28;4975271;28;20221;-91
2021/12/16 11:49:22;;;;;;;8.90;4.30;;;;;;;8.99;59.29;99809.41;4974825;28;20176;-91
2021/12/16 11:51:56;;;;;;;16.00;4.57;;;;;;;9.15;58.63;99800.09;4958235;28;20190;-90
2021/12/16 11:54:38;;;;;;;10.80;3.77;;;;;;;9.14;58.31;99806.28;4957676;28;20619;-91
2021/12/16 11:57:19;;;;;;;11.70;3.87;;;;;;;9.04;59.47;99807.47;4960803;28;20273;-91
2021/12/16 11:59:56;;;;;;;9.63;4.50;;;;;;;9.09;59.09;99797.72;4955646;28;20179;-90
2021/12/16 12:02:31;;;;;;;17.70;7.20;;;;;;;9.41;59.15;99798.31;4939037;29;20199;-91
2021/12/16 12:05:34;;;;;;;9.40;4.47;;;;;;;9.34;58.27;99794.19;4955478;29;20205;-92
2021/12/16 12:08:06;;;;;;;9.13;4.27;;;;;;;9.35;58.45;99790.69;4899531;29;20202;-91
2021/12/16 12:10:54;;;;;;;11.20;3.93;;;;;;;9.42;58.49;99803.47;4948552;28;20203;-92
2021/12/16 12:13:25;;;;;;;10.20;4.67;;;;;;;9.39;57.94;99797.50;4932158;29;20199;-90
2021/12/16 12:15:55;;;;;;;8.47;3.73;;;;;;;9.43;58.55;99796.50;4956753;28;20534;-91
2021/12/16 12:18:43;;;;;;;10.03;3.77;;;;;;;9.39;58.09;99800.13;4942643;28;20183;-91
2021/12/16 12:21:39;;;;;;;13.73;4.57;;;;;;;9.29;58.76;99802.22;4942223;29;20177;-91
2021/12/16 12:24:06;;;;;;;9.10;4.10;;;;;;;9.20;58.90;99811.25;4959111;29;20192;-90
2021/12/16 12:26:37;;;;;;;9.30;4.53;;;;;;;9.31;59.77;99805.63;4942250;29;20179;-91
2021/12/16 12:29:08;;;;;;;10.63;3.20;;;;;;;9.48;59.13;99808.50;4942080;29;20268;-91
2021/12/16 12:31:37;;;;;;;15.30;6.13;;;;;;;9.13;59.54;99811.53;4959276;29;20199;-90
2021/12/16 12:34:03;;;;;;;11.23;5.07;;;;;;;9.31;59.58;99810.00;4958629;28;20186;-90
2021/12/16 12:36:28;;;;;;;9.60;4.40;;;;;;;9.21;59.28;99818.22;4959038;28;20209;-91
2021/12/16 12:38:54;;;;;;;11.90;4.70;;;;;;;9.18;59.21;99815.69;4958818;28;20205;-91
2021/12/16 12:41:21;;;;;;;9.30;4.07;;;;;;;9.33;58.03;99808.22;4958573;28;20183;-91
2021/12/16 12:43:47;;;;;;;10.53;4.33;;;;;;;9.47;58.37;99809.41;4942296;29;20190;-91
2021/12/16 12:46:13;;;;;;;12.10;4.07;;;;;;;9.49;58.15;99810.19;4958554;29;20679;-90
2021/12/16 12:48:41;;;;;;;14.83;6.03;;;;;;;9.47;58.72;99808.53;4958507;28;20185;-92
2021/12/16 12:51:07;;;;;;;12.70;4.77;;;;;;;9.62;59.36;99814.03;4958654;28;20245;-91
2021/12/16 12:53:47;;;;;;;11.40;3.53;;;;;;;9.74;59.35;99812.75;4941540;29;20531;-90
2021/12/16 12:56:18;;;;;;;12.23;4.60;;;;;;;9.57;59.56;99813.38;4941255;29;20569;-90
2021/12/16 12:58:53;;;;;;;7.73;4.40;;;;;;;9.69;59.54;99819.91;4958652;29;20687;-92
2021/12/16 13:01:34;;;;;;;11.07;5.90;;;;;;;9.81;59.75;99814.19;4957590;28;20191;-90
2021/12/16 13:04:17;;;;;;;7.37;3.63;;;;;;;9.88;59.82;99810.41;4941639;29;20203;-92
2021/12/16 13:06:53;;;;;;;7.67;3.57;;;;;;;9.98;58.74;99803.94;4958540;29;20161;-91
2021/12/16 13:09:43;;;;;;;9.53;4.33;;;;;;;10.04;59.91;99808.03;4958445;29;20173;-91
2021/12/16 13:12:41;;;;;;;9.77;3.67;;;;;;;9.96;59.94;99808.34;4957106;29;20221;-91
2021/12/16 13:15:22;;;;;;;7.73;3.57;;;;;;;9.82;60.04;99813.28;4940360;29;20554;-91
2021/12/16 13:29:31;;;;;;;7.17;3.50;;;;;;;9.62;59.70;99815.81;4957542;29;20180;-90
2021/12/16 13:32:11;;;;;;;6.53;2.53;;;;;;;9.78;59.80;99806.47;4940995;29;20191;-89
2021/12/16 13:34:51;;;;;;;7.27;3.33;;;;;;;9.90;59.66;99804.22;4940902;29;20211;-90
2021/12/16 13:37:39;;;;;;;5.13;2.90;;;;;;;9.73;59.01;99804.03;4958081;29;20205;-91
2021/12/16 13:40:24;;;;;;;6.73;3.13;;;;;;;9.74;60.11;99810.13;4957595;29;20175;-91
2021/12/16 13:42:58;;;;;;;9.23;3.33;;;;;;;9.89;59.68;99804.28;4957838;29;20184;-90
2021/12/16 13:45:42;;;;;;;5.87;2.60;;;;;;;9.73;59.67;99804.03;4958279;29;20593;-90
2021/12/16 14:02:57;;;;;;;9.90;3.30;;;;;;;9.80;61.09;99809.91;4974221;28;20186;-91
2021/12/16 14:05:41;;;;;;;3.77;2.13;;;;;;;9.86;61.62;99814.88;4961392;28;20190;-91
2021/12/16 14:08:05;;;;;;;7.10;2.20;;;;;;;9.81;61.34;99815.06;4973206;28;20362;-91
2021/12/16 14:10:55;;;;;;;5.47;3.50;;;;;;;9.89;61.33;99812.13;4959294;28;20607;-90
2021/12/16 14:38:59;;;;;;;9.57;2.87;;;;;;;9.10;67.45;99809.88;4937016;29;20202;-90
2021/12/16 14:47:54;;;;;;;7.60;3.33;;;;;;;9.15;67.22;99807.97;4975855;28;20163;-90
2021/12/16 14:49:43;;;;;;;7.70;3.50;;;;;;;9.18;66.74;99810.47;4964718;28;20259;-90
2021/12/16 14:52:14;;;;;;;8.00;2.73;;;;;;;9.13;67.01;99806.31;4958731;28;20179;-89
2021/12/16 14:54:50;;;;;;;11.10;3.87;;;;;;;9.18;67.06;99809.59;4956773;28;20264;-90
2021/12/16 14:57:24;;;;;;;8.30;3.03;;;;;;;9.13;67.23;99816.78;4955782;28;20289;-90
2021/12/16 14:59:51;;;;;;;12.83;4.47;;;;;;;9.01;67.61;99818.06;4955900;29;20168;-90
2021/12/16 15:02:17;;;;;;;16.27;5.23;;;;;;;9.09;67.24;99816.00;4939280;29;20255;-90
2021/12/16 15:04:43;;;;;;;9.93;4.77;;;;;;;9.14;67.42;99821.09;4970520;28;20204;-90
2021/12/16 15:07:11;;;;;;;10.20;4.57;;;;;;;9.08;67.12;99814.31;4973780;28;20540;-89
2021/12/16 15:09:39;;;;;;;7.27;3.03;;;;;;;9.01;67.68;99812.00;4960587;28;20177;-89
2021/12/16 15:12:14;;;;;;;11.20;4.13;;;;;;;8.84;68.15;99820.41;4944603;28;20187;-89
2021/12/16 15:42:49;;;;;;;5.00;2.10;;;;;;;8.73;68.71;99832.97;4922330;29;20199;-90
2021/12/16 15:45:27;;;;;;;5.27;2.63;;;;;;;8.67;68.72;99837.59;4938269;29;20646;-90
2021/12/16 15:48:00;;;;;;;5.53;2.03;;;;;;;8.69;69.06;99843.59;4937305;29;20234;-91